sensor_id;sensor_type;location;lat;lon;timestamp;P1;durP1;ratioP1;P2;durP2;ratioP2
7899;SDS011;3995;50.856;4.404;2023-06-10T00:00:53;5.70;;;5.10;;
7899;SDS011;3995;50.856;4.404;2023-06-10T00:03:24;7.80;;;4.80;;
7899;SDS011;3995;50.856;4.404;2023-06-10T00:05:52;10.63;;;4.93;;
7899;SDS011;3995;50.856;4.404;2023-06-10T00:08:19;9.17;;;5.43;;
7899;SDS011;3995;50.856;4.404;2023-06-10T00:10:47;8.40;;;4.60;;
7899;SDS011;3995;50.856;4.404;2023-06-10T00:13:17;6.40;;;4.83;;
7899;SDS011;3995;50.856;4.404;2023-06-10T00:15:45;4.97;;;4.47;;
7899;SDS011;3995;50.856;4.404;2023-06-10T00:18:16;6.53;;;4.90;;
7899;SDS011;3995;50.856;4.404;2023-06-10T00:21:01;9.40;;;5.17;;
7899;SDS011;3995;50.856;4.404;2023-06-10T00:23:32;6.83;;;4.60;;
7899;SDS011;3995;50.856;4.404;2023-06-10T00:26:08;8.43;;;5.23;;
7899;SDS011;3995;50.856;4.404;2023-06-10T00:28:47;6.10;;;4.77;;
7899;SDS011;3995;50.856;4.404;2023-06-10T00:31:14;7.20;;;5.00;;
7899;SDS011;3995;50.856;4.404;2023-06-10T00:33:44;9.00;;;5.33;;
7899;SDS011;3995;50.856;4.404;2023-06-10T00:36:15;4.80;;;4.30;;
7899;SDS011;3995;50.856;4.404;2023-06-10T00:38:42;7.83;;;4.57;;
7899;SDS011;3995;50.856;4.404;2023-06-10T00:41:10;7.90;;;4.83;;
7899;SDS011;3995;50.856;4.404;2023-06-10T00:43:37;5.47;;;4.87;;
7899;SDS011;3995;50.856;4.404;2023-06-10T00:46:04;7.03;;;4.97;;
7899;SDS011;3995;50.856;4.404;2023-06-10T00:48:31;6.23;;;4.73;;
7899;SDS011;3995;50.856;4.404;2023-06-10T00:51:00;6.17;;;4.27;;
7899;SDS011;3995;50.856;4.404;2023-06-10T00:53:28;5.20;;;4.70;;
7899;SDS011;3995;50.856;4.404;2023-06-10T00:55:55;8.47;;;5.40;;
7899;SDS011;3995;50.856;4.404;2023-06-10T00:58:24;5.83;;;4.90;;
7899;SDS011;3995;50.856;4.404;2023-06-10T01:00:51;6.90;;;5.00;;
7899;SDS011;3995;50.856;4.404;2023-06-10T01:03:18;8.30;;;5.03;;
7899;SDS011;3995;50.856;4.404;2023-06-10T01:05:46;8.83;;;5.10;;
7899;SDS011;3995;50.856;4.404;2023-06-10T01:08:19;5.20;;;4.70;;
7899;SDS011;3995;50.856;4.404;2023-06-10T01:10:57;5.57;;;4.40;;
7899;SDS011;3995;50.856;4.404;2023-06-10T01:13:26;7.50;;;5.10;;
7899;SDS011;3995;50.856;4.404;2023-06-10T01:15:54;5.07;;;4.57;;
7899;SDS011;3995;50.856;4.404;2023-06-10T01:18:22;5.70;;;4.80;;
7899;SDS011;3995;50.856;4.404;2023-06-10T01:20:50;7.33;;;4.30;;
7899;SDS011;3995;50.856;4.404;2023-06-10T01:23:19;9.20;;;4.80;;
7899;SDS011;3995;50.856;4.404;2023-06-10T01:25:47;7.73;;;5.03;;
7899;SDS011;3995;50.856;4.404;2023-06-10T01:28:21;5.10;;;4.60;;
7899;SDS011;3995;50.856;4.404;2023-06-10T01:30:55;5.90;;;4.40;;
7899;SDS011;3995;50.856;4.404;2023-06-10T01:33:33;7.53;;;5.07;;
7899;SDS011;3995;50.856;4.404;2023-06-10T01:36:04;5.90;;;4.60;;
7899;SDS011;3995;50.856;4.404;2023-06-10T01:38:36;10.47;;;5.00;;
7899;SDS011;3995;50.856;4.404;2023-06-10T01:41:06;9.70;;;5.50;;
7899;SDS011;3995;50.856;4.404;2023-06-10T01:43:34;11.10;;;5.37;;
7899;SDS011;3995;50.856;4.404;2023-06-10T01:46:03;6.87;;;5.37;;
7899;SDS011;3995;50.856;4.404;2023-06-10T01:48:31;13.93;;;5.10;;
7899;SDS011;3995;50.856;4.404;2023-06-10T01:50:59;6.43;;;4.70;;
7899;SDS011;3995;50.856;4.404;2023-06-10T01:53:26;7.23;;;4.90;;
7899;SDS011;3995;50.856;4.404;2023-06-10T01:55:55;9.93;;;4.73;;
7899;SDS011;3995;50.856;4.404;2023-06-10T01:58:22;8.53;;;5.40;;
7899;SDS011;3995;50.856;4.404;2023-06-10T02:00:49;15.20;;;5.60;;
7899;SDS011;3995;50.856;4.404;2023-06-10T02:03:16;7.60;;;4.70;;
7899;SDS011;3995;50.856;4.404;2023-06-10T02:05:43;7.43;;;5.30;;
7899;SDS011;3995;50.856;4.404;2023-06-10T02:08:11;8.30;;;5.43;;
7899;SDS011;3995;50.856;4.404;2023-06-10T02:10:38;6.40;;;5.50;;
7899;SDS011;3995;50.856;4.404;2023-06-10T02:13:07;9.87;;;4.90;;
7899;SDS011;3995;50.856;4.404;2023-06-10T02:15:34;6.97;;;5.70;;
7899;SDS011;3995;50.856;4.404;2023-06-10T02:18:01;7.77;;;5.37;;
7899;SDS011;3995;50.856;4.404;2023-06-10T02:20:29;5.93;;;5.20;;
7899;SDS011;3995;50.856;4.404;2023-06-10T02:22:56;11.47;;;5.40;;
7899;SDS011;3995;50.856;4.404;2023-06-10T02:25:25;8.97;;;5.40;;
7899;SDS011;3995;50.856;4.404;2023-06-10T02:27:52;7.70;;;6.20;;
7899;SDS011;3995;50.856;4.404;2023-06-10T02:30:20;13.97;;;5.80;;
7899;SDS011;3995;50.856;4.404;2023-06-10T02:32:48;6.67;;;5.17;;
7899;SDS011;3995;50.856;4.404;2023-06-10T02:35:15;5.67;;;5.03;;
7899;SDS011;3995;50.856;4.404;2023-06-10T02:37:43;8.03;;;5.00;;
7899;SDS011;3995;50.856;4.404;2023-06-10T02:40:11;6.03;;;4.57;;
7899;SDS011;3995;50.856;4.404;2023-06-10T02:42:38;9.60;;;5.47;;
7899;SDS011;3995;50.856;4.404;2023-06-10T02:45:06;7.93;;;5.00;;
7899;SDS011;3995;50.856;4.404;2023-06-10T02:47:37;6.10;;;5.50;;
7899;SDS011;3995;50.856;4.404;2023-06-10T02:50:05;6.23;;;5.10;;
7899;SDS011;3995;50.856;4.404;2023-06-10T02:52:32;7.00;;;5.47;;
7899;SDS011;3995;50.856;4.404;2023-06-10T02:54:59;6.40;;;5.50;;
7899;SDS011;3995;50.856;4.404;2023-06-10T02:57:26;6.43;;;5.37;;
7899;SDS011;3995;50.856;4.404;2023-06-10T02:59:54;7.20;;;5.20;;
7899;SDS011;3995;50.856;4.404;2023-06-10T03:02:23;5.40;;;4.90;;
7899;SDS011;3995;50.856;4.404;2023-06-10T03:04:54;6.90;;;5.57;;
7899;SDS011;3995;50.856;4.404;2023-06-10T03:07:22;7.33;;;5.60;;
7899;SDS011;3995;50.856;4.404;2023-06-10T03:09:49;8.33;;;5.00;;
7899;SDS011;3995;50.856;4.404;2023-06-10T03:12:17;7.07;;;5.57;;
7899;SDS011;3995;50.856;4.404;2023-06-10T03:14:44;11.93;;;5.13;;
7899;SDS011;3995;50.856;4.404;2023-06-10T03:17:11;7.23;;;4.83;;
7899;SDS011;3995;50.856;4.404;2023-06-10T03:19:39;5.90;;;5.17;;
7899;SDS011;3995;50.856;4.404;2023-06-10T03:22:11;5.90;;;4.80;;
7899;SDS011;3995;50.856;4.404;2023-06-10T03:24:39;6.87;;;5.87;;
7899;SDS011;3995;50.856;4.404;2023-06-10T03:27:08;8.13;;;5.67;;
7899;SDS011;3995;50.856;4.404;2023-06-10T03:29:36;7.20;;;5.33;;
7899;SDS011;3995;50.856;4.404;2023-06-10T03:32:04;6.90;;;5.97;;
7899;SDS011;3995;50.856;4.404;2023-06-10T03:34:31;8.00;;;5.13;;
7899;SDS011;3995;50.856;4.404;2023-06-10T03:36:58;7.73;;;5.23;;
7899;SDS011;3995;50.856;4.404;2023-06-10T03:39:28;6.93;;;5.60;;
7899;SDS011;3995;50.856;4.404;2023-06-10T03:41:55;9.70;;;5.80;;
7899;SDS011;3995;50.856;4.404;2023-06-10T03:44:23;7.07;;;5.80;;
7899;SDS011;3995;50.856;4.404;2023-06-10T03:46:51;6.50;;;5.90;;
7899;SDS011;3995;50.856;4.404;2023-06-10T03:49:18;6.30;;;5.20;;
7899;SDS011;3995;50.856;4.404;2023-06-10T03:51:45;10.37;;;5.43;;
7899;SDS011;3995;50.856;4.404;2023-06-10T03:54:12;12.67;;;6.60;;
7899;SDS011;3995;50.856;4.404;2023-06-10T03:56:44;7.57;;;6.30;;
7899;SDS011;3995;50.856;4.404;2023-06-10T03:59:13;13.40;;;5.70;;
7899;SDS011;3995;50.856;4.404;2023-06-10T04:01:40;10.13;;;5.33;;
7899;SDS011;3995;50.856;4.404;2023-06-10T04:04:08;7.27;;;5.53;;
7899;SDS011;3995;50.856;4.404;2023-06-10T04:06:36;10.27;;;6.00;;
7899;SDS011;3995;50.856;4.404;2023-06-10T04:09:03;5.77;;;5.17;;
7899;SDS011;3995;50.856;4.404;2023-06-10T04:11:30;8.43;;;6.27;;
7899;SDS011;3995;50.856;4.404;2023-06-10T04:13:59;6.87;;;5.40;;
7899;SDS011;3995;50.856;4.404;2023-06-10T04:16:27;6.07;;;5.40;;
7899;SDS011;3995;50.856;4.404;2023-06-10T04:18:54;9.53;;;5.80;;
7899;SDS011;3995;50.856;4.404;2023-06-10T04:21:21;8.90;;;5.73;;
7899;SDS011;3995;50.856;4.404;2023-06-10T04:23:49;9.67;;;6.30;;
7899;SDS011;3995;50.856;4.404;2023-06-10T04:26:16;11.40;;;6.17;;
7899;SDS011;3995;50.856;4.404;2023-06-10T04:28:44;7.93;;;5.40;;
7899;SDS011;3995;50.856;4.404;2023-06-10T04:31:13;8.23;;;5.50;;
7899;SDS011;3995;50.856;4.404;2023-06-10T04:33:40;13.30;;;6.30;;
7899;SDS011;3995;50.856;4.404;2023-06-10T04:36:07;6.87;;;5.93;;
7899;SDS011;3995;50.856;4.404;2023-06-10T04:38:34;12.40;;;6.53;;
7899;SDS011;3995;50.856;4.404;2023-06-10T04:41:01;10.40;;;6.27;;
7899;SDS011;3995;50.856;4.404;2023-06-10T04:43:28;7.43;;;5.70;;
7899;SDS011;3995;50.856;4.404;2023-06-10T04:45:56;10.10;;;6.03;;
7899;SDS011;3995;50.856;4.404;2023-06-10T04:48:24;7.83;;;6.23;;
7899;SDS011;3995;50.856;4.404;2023-06-10T04:50:51;10.83;;;5.87;;
7899;SDS011;3995;50.856;4.404;2023-06-10T04:53:18;9.30;;;6.10;;
7899;SDS011;3995;50.856;4.404;2023-06-10T04:55:45;9.57;;;6.10;;
7899;SDS011;3995;50.856;4.404;2023-06-10T04:58:13;6.40;;;5.80;;
7899;SDS011;3995;50.856;4.404;2023-06-10T05:00:40;10.33;;;6.07;;
7899;SDS011;3995;50.856;4.404;2023-06-10T05:03:08;10.20;;;6.10;;
7899;SDS011;3995;50.856;4.404;2023-06-10T05:05:37;6.50;;;5.37;;
7899;SDS011;3995;50.856;4.404;2023-06-10T05:08:04;14.43;;;6.30;;
7899;SDS011;3995;50.856;4.404;2023-06-10T05:10:31;8.10;;;6.07;;
7899;SDS011;3995;50.856;4.404;2023-06-10T05:12:59;11.53;;;6.77;;
7899;SDS011;3995;50.856;4.404;2023-06-10T05:15:28;8.70;;;5.60;;
7899;SDS011;3995;50.856;4.404;2023-06-10T05:17:56;9.37;;;6.27;;
7899;SDS011;3995;50.856;4.404;2023-06-10T05:20:23;9.37;;;5.90;;
7899;SDS011;3995;50.856;4.404;2023-06-10T05:22:52;7.27;;;5.80;;
7899;SDS011;3995;50.856;4.404;2023-06-10T05:25:19;9.07;;;6.67;;
7899;SDS011;3995;50.856;4.404;2023-06-10T05:27:46;12.70;;;6.80;;
7899;SDS011;3995;50.856;4.404;2023-06-10T05:30:13;7.37;;;6.13;;
7899;SDS011;3995;50.856;4.404;2023-06-10T05:32:41;8.30;;;5.57;;
7899;SDS011;3995;50.856;4.404;2023-06-10T05:35:09;8.67;;;6.00;;
7899;SDS011;3995;50.856;4.404;2023-06-10T05:37:36;11.70;;;5.87;;
7899;SDS011;3995;50.856;4.404;2023-06-10T05:40:07;7.53;;;6.07;;
7899;SDS011;3995;50.856;4.404;2023-06-10T05:42:37;11.10;;;6.67;;
7899;SDS011;3995;50.856;4.404;2023-06-10T05:45:05;8.07;;;5.60;;
7899;SDS011;3995;50.856;4.404;2023-06-10T05:47:33;14.93;;;6.53;;
7899;SDS011;3995;50.856;4.404;2023-06-10T05:50:00;11.27;;;6.00;;
7899;SDS011;3995;50.856;4.404;2023-06-10T05:52:28;15.20;;;7.03;;
7899;SDS011;3995;50.856;4.404;2023-06-10T05:54:54;10.50;;;5.90;;
7899;SDS011;3995;50.856;4.404;2023-06-10T05:57:26;7.13;;;6.40;;
7899;SDS011;3995;50.856;4.404;2023-06-10T05:59:53;9.73;;;6.70;;
7899;SDS011;3995;50.856;4.404;2023-06-10T06:02:28;10.33;;;5.90;;
7899;SDS011;3995;50.856;4.404;2023-06-10T06:04:55;12.20;;;7.13;;
7899;SDS011;3995;50.856;4.404;2023-06-10T06:07:22;8.43;;;6.10;;
7899;SDS011;3995;50.856;4.404;2023-06-10T06:09:49;9.37;;;5.90;;
7899;SDS011;3995;50.856;4.404;2023-06-10T06:12:16;14.00;;;6.27;;
7899;SDS011;3995;50.856;4.404;2023-06-10T06:14:44;10.07;;;6.00;;
7899;SDS011;3995;50.856;4.404;2023-06-10T06:17:11;14.43;;;6.80;;
7899;SDS011;3995;50.856;4.404;2023-06-10T06:19:38;14.30;;;6.23;;
7899;SDS011;3995;50.856;4.404;2023-06-10T06:22:05;13.77;;;6.20;;
7899;SDS011;3995;50.856;4.404;2023-06-10T06:24:32;13.30;;;5.97;;
7899;SDS011;3995;50.856;4.404;2023-06-10T06:26:59;14.27;;;7.20;;
7899;SDS011;3995;50.856;4.404;2023-06-10T06:29:26;9.50;;;6.10;;
7899;SDS011;3995;50.856;4.404;2023-06-10T06:31:56;14.37;;;6.33;;
7899;SDS011;3995;50.856;4.404;2023-06-10T06:34:23;7.00;;;5.57;;
7899;SDS011;3995;50.856;4.404;2023-06-10T06:36:50;14.70;;;6.17;;
7899;SDS011;3995;50.856;4.404;2023-06-10T06:39:17;7.83;;;6.03;;
7899;SDS011;3995;50.856;4.404;2023-06-10T06:41:44;11.33;;;6.33;;
7899;SDS011;3995;50.856;4.404;2023-06-10T06:44:12;9.40;;;6.27;;
7899;SDS011;3995;50.856;4.404;2023-06-10T06:46:39;9.90;;;6.40;;
7899;SDS011;3995;50.856;4.404;2023-06-10T06:49:08;12.97;;;6.63;;
7899;SDS011;3995;50.856;4.404;2023-06-10T06:51:35;7.10;;;5.63;;
7899;SDS011;3995;50.856;4.404;2023-06-10T06:54:03;10.73;;;5.63;;
7899;SDS011;3995;50.856;4.404;2023-06-10T06:56:30;8.87;;;6.17;;
7899;SDS011;3995;50.856;4.404;2023-06-10T06:58:58;9.07;;;5.93;;
7899;SDS011;3995;50.856;4.404;2023-06-10T07:01:25;6.13;;;5.20;;
7899;SDS011;3995;50.856;4.404;2023-06-10T07:03:52;11.93;;;6.07;;
7899;SDS011;3995;50.856;4.404;2023-06-10T07:06:21;7.40;;;6.03;;
7899;SDS011;3995;50.856;4.404;2023-06-10T07:08:48;7.63;;;5.30;;
7899;SDS011;3995;50.856;4.404;2023-06-10T07:11:16;6.97;;;5.87;;
7899;SDS011;3995;50.856;4.404;2023-06-10T07:13:44;7.50;;;6.00;;
7899;SDS011;3995;50.856;4.404;2023-06-10T07:16:12;9.93;;;5.60;;
7899;SDS011;3995;50.856;4.404;2023-06-10T07:18:39;12.90;;;5.97;;
7899;SDS011;3995;50.856;4.404;2023-06-10T07:21:07;9.00;;;5.70;;
7899;SDS011;3995;50.856;4.404;2023-06-10T07:23:35;8.07;;;5.80;;
7899;SDS011;3995;50.856;4.404;2023-06-10T07:26:02;12.00;;;6.23;;
7899;SDS011;3995;50.856;4.404;2023-06-10T07:28:30;10.60;;;5.57;;
7899;SDS011;3995;50.856;4.404;2023-06-10T07:30:57;6.40;;;5.57;;
7899;SDS011;3995;50.856;4.404;2023-06-10T07:33:25;6.10;;;5.50;;
7899;SDS011;3995;50.856;4.404;2023-06-10T07:35:52;7.33;;;5.13;;
7899;SDS011;3995;50.856;4.404;2023-06-10T07:38:19;13.43;;;5.77;;
7899;SDS011;3995;50.856;4.404;2023-06-10T07:40:48;6.50;;;5.40;;
7899;SDS011;3995;50.856;4.404;2023-06-10T07:43:15;8.03;;;6.17;;
7899;SDS011;3995;50.856;4.404;2023-06-10T07:45:43;9.00;;;5.80;;
7899;SDS011;3995;50.856;4.404;2023-06-10T07:48:13;8.17;;;5.30;;
7899;SDS011;3995;50.856;4.404;2023-06-10T07:50:41;21.33;;;7.03;;
7899;SDS011;3995;50.856;4.404;2023-06-10T07:53:08;8.10;;;5.30;;
7899;SDS011;3995;50.856;4.404;2023-06-10T07:55:35;10.00;;;4.80;;
7899;SDS011;3995;50.856;4.404;2023-06-10T07:58:04;8.73;;;4.93;;
7899;SDS011;3995;50.856;4.404;2023-06-10T08:00:31;7.43;;;4.20;;
7899;SDS011;3995;50.856;4.404;2023-06-10T08:02:58;5.67;;;4.60;;
7899;SDS011;3995;50.856;4.404;2023-06-10T08:05:25;6.10;;;4.60;;
7899;SDS011;3995;50.856;4.404;2023-06-10T08:07:53;7.53;;;5.10;;
7899;SDS011;3995;50.856;4.404;2023-06-10T08:10:20;12.13;;;5.20;;
7899;SDS011;3995;50.856;4.404;2023-06-10T08:12:47;8.60;;;5.23;;
7899;SDS011;3995;50.856;4.404;2023-06-10T08:15:16;6.23;;;5.53;;
7899;SDS011;3995;50.856;4.404;2023-06-10T08:17:44;6.60;;;4.70;;
7899;SDS011;3995;50.856;4.404;2023-06-10T08:20:11;7.80;;;5.07;;
7899;SDS011;3995;50.856;4.404;2023-06-10T08:22:38;7.53;;;4.77;;
7899;SDS011;3995;50.856;4.404;2023-06-10T08:25:06;5.13;;;4.27;;
7899;SDS011;3995;50.856;4.404;2023-06-10T08:27:33;9.77;;;4.97;;
7899;SDS011;3995;50.856;4.404;2023-06-10T08:30:00;7.37;;;5.00;;
7899;SDS011;3995;50.856;4.404;2023-06-10T08:32:29;4.83;;;4.07;;
7899;SDS011;3995;50.856;4.404;2023-06-10T08:34:56;12.10;;;4.40;;
7899;SDS011;3995;50.856;4.404;2023-06-10T08:37:24;6.07;;;4.50;;
7899;SDS011;3995;50.856;4.404;2023-06-10T08:39:51;5.77;;;3.73;;
7899;SDS011;3995;50.856;4.404;2023-06-10T08:42:21;7.30;;;4.80;;
7899;SDS011;3995;50.856;4.404;2023-06-10T08:44:51;12.73;;;4.93;;
7899;SDS011;3995;50.856;4.404;2023-06-10T08:47:22;5.97;;;3.97;;
7899;SDS011;3995;50.856;4.404;2023-06-10T08:49:51;13.83;;;4.77;;
7899;SDS011;3995;50.856;4.404;2023-06-10T08:52:21;8.37;;;4.40;;
7899;SDS011;3995;50.856;4.404;2023-06-10T08:54:52;6.00;;;4.27;;
7899;SDS011;3995;50.856;4.404;2023-06-10T08:57:23;6.03;;;4.50;;
7899;SDS011;3995;50.856;4.404;2023-06-10T08:59:51;7.87;;;4.43;;
7899;SDS011;3995;50.856;4.404;2023-06-10T09:02:20;9.37;;;5.30;;
7899;SDS011;3995;50.856;4.404;2023-06-10T09:04:48;12.43;;;4.77;;
7899;SDS011;3995;50.856;4.404;2023-06-10T09:07:18;7.80;;;4.53;;
7899;SDS011;3995;50.856;4.404;2023-06-10T09:09:45;7.27;;;4.20;;
7899;SDS011;3995;50.856;4.404;2023-06-10T09:12:13;6.43;;;3.33;;
7899;SDS011;3995;50.856;4.404;2023-06-10T09:14:40;7.83;;;4.83;;
7899;SDS011;3995;50.856;4.404;2023-06-10T09:17:08;11.07;;;3.60;;
7899;SDS011;3995;50.856;4.404;2023-06-10T09:19:36;8.90;;;4.33;;
7899;SDS011;3995;50.856;4.404;2023-06-10T09:22:06;10.90;;;3.33;;
7899;SDS011;3995;50.856;4.404;2023-06-10T09:24:33;4.93;;;3.63;;
7899;SDS011;3995;50.856;4.404;2023-06-10T09:27:04;11.23;;;5.10;;
7899;SDS011;3995;50.856;4.404;2023-06-10T09:29:35;11.10;;;5.60;;
7899;SDS011;3995;50.856;4.404;2023-06-10T09:32:12;4.53;;;4.07;;
7899;SDS011;3995;50.856;4.404;2023-06-10T09:34:39;10.00;;;4.77;;
7899;SDS011;3995;50.856;4.404;2023-06-10T09:37:08;5.50;;;3.53;;
7899;SDS011;3995;50.856;4.404;2023-06-10T09:39:37;5.80;;;4.17;;
7899;SDS011;3995;50.856;4.404;2023-06-10T09:42:10;5.90;;;5.13;;
7899;SDS011;3995;50.856;4.404;2023-06-10T09:44:42;4.30;;;3.90;;
7899;SDS011;3995;50.856;4.404;2023-06-10T09:47:19;6.67;;;3.90;;
7899;SDS011;3995;50.856;4.404;2023-06-10T09:49:47;3.47;;;3.17;;
7899;SDS011;3995;50.856;4.404;2023-06-10T09:52:19;4.63;;;3.70;;
7899;SDS011;3995;50.856;4.404;2023-06-10T09:54:48;11.23;;;4.40;;
7899;SDS011;3995;50.856;4.404;2023-06-10T09:57:17;3.50;;;3.20;;
7899;SDS011;3995;50.856;4.404;2023-06-10T09:59:44;3.67;;;3.27;;
7899;SDS011;3995;50.856;4.404;2023-06-10T10:02:13;9.50;;;3.77;;
7899;SDS011;3995;50.856;4.404;2023-06-10T10:04:41;4.07;;;3.30;;
7899;SDS011;3995;50.856;4.404;2023-06-10T10:07:08;4.13;;;3.73;;
7899;SDS011;3995;50.856;4.404;2023-06-10T10:09:37;6.60;;;3.70;;
7899;SDS011;3995;50.856;4.404;2023-06-10T10:12:05;7.27;;;3.67;;
7899;SDS011;3995;50.856;4.404;2023-06-10T10:14:37;12.77;;;4.17;;
7899;SDS011;3995;50.856;4.404;2023-06-10T10:17:07;7.10;;;3.70;;
7899;SDS011;3995;50.856;4.404;2023-06-10T10:19:37;3.90;;;3.50;;
7899;SDS011;3995;50.856;4.404;2023-06-10T10:22:19;3.57;;;3.20;;
7899;SDS011;3995;50.856;4.404;2023-06-10T10:24:53;5.17;;;4.20;;
7899;SDS011;3995;50.856;4.404;2023-06-10T10:27:26;5.87;;;3.27;;
7899;SDS011;3995;50.856;4.404;2023-06-10T10:29:54;3.33;;;2.90;;
7899;SDS011;3995;50.856;4.404;2023-06-10T10:32:26;4.40;;;3.20;;
7899;SDS011;3995;50.856;4.404;2023-06-10T10:35:01;4.47;;;3.07;;
7899;SDS011;3995;50.856;4.404;2023-06-10T10:37:35;6.53;;;4.80;;
7899;SDS011;3995;50.856;4.404;2023-06-10T10:40:04;8.00;;;4.40;;
7899;SDS011;3995;50.856;4.404;2023-06-10T10:42:33;18.77;;;4.10;;
7899;SDS011;3995;50.856;4.404;2023-06-10T10:45:02;8.43;;;3.27;;
7899;SDS011;3995;50.856;4.404;2023-06-10T10:47:30;4.43;;;3.00;;
7899;SDS011;3995;50.856;4.404;2023-06-10T10:50:00;18.37;;;4.03;;
7899;SDS011;3995;50.856;4.404;2023-06-10T10:52:28;9.70;;;4.37;;
7899;SDS011;3995;50.856;4.404;2023-06-10T10:55:19;11.30;;;3.83;;
7899;SDS011;3995;50.856;4.404;2023-06-10T10:57:53;9.70;;;4.07;;
7899;SDS011;3995;50.856;4.404;2023-06-10T11:00:24;5.03;;;2.90;;
7899;SDS011;3995;50.856;4.404;2023-06-10T11:02:57;3.60;;;3.30;;
7899;SDS011;3995;50.856;4.404;2023-06-10T11:05:35;5.37;;;3.80;;
7899;SDS011;3995;50.856;4.404;2023-06-10T11:08:04;6.10;;;3.70;;
7899;SDS011;3995;50.856;4.404;2023-06-10T11:10:33;10.67;;;4.20;;
7899;SDS011;3995;50.856;4.404;2023-06-10T11:13:05;4.00;;;3.40;;
7899;SDS011;3995;50.856;4.404;2023-06-10T11:15:33;7.63;;;3.30;;
7899;SDS011;3995;50.856;4.404;2023-06-10T11:18:12;4.90;;;3.70;;
7899;SDS011;3995;50.856;4.404;2023-06-10T11:20:44;3.60;;;3.30;;
7899;SDS011;3995;50.856;4.404;2023-06-10T11:23:30;3.73;;;3.13;;
7899;SDS011;3995;50.856;4.404;2023-06-10T11:26:15;6.50;;;3.83;;
7899;SDS011;3995;50.856;4.404;2023-06-10T11:29:08;3.80;;;3.30;;
7899;SDS011;3995;50.856;4.404;2023-06-10T11:31:40;4.73;;;3.47;;
7899;SDS011;3995;50.856;4.404;2023-06-10T11:34:10;4.07;;;3.67;;
7899;SDS011;3995;50.856;4.404;2023-06-10T11:36:38;4.50;;;2.70;;
7899;SDS011;3995;50.856;4.404;2023-06-10T11:39:10;3.80;;;3.40;;
7899;SDS011;3995;50.856;4.404;2023-06-10T11:41:39;5.37;;;2.87;;
7899;SDS011;3995;50.856;4.404;2023-06-10T11:44:08;4.70;;;3.60;;
7899;SDS011;3995;50.856;4.404;2023-06-10T11:46:38;8.57;;;3.90;;
7899;SDS011;3995;50.856;4.404;2023-06-10T11:49:07;12.77;;;4.23;;
7899;SDS011;3995;50.856;4.404;2023-06-10T11:51:35;5.30;;;3.10;;
7899;SDS011;3995;50.856;4.404;2023-06-10T11:54:04;4.93;;;3.40;;
7899;SDS011;3995;50.856;4.404;2023-06-10T11:56:32;7.63;;;3.93;;
7899;SDS011;3995;50.856;4.404;2023-06-10T11:59:01;7.00;;;3.40;;
7899;SDS011;3995;50.856;4.404;2023-06-10T12:01:31;5.17;;;3.10;;
7899;SDS011;3995;50.856;4.404;2023-06-10T12:04:00;8.03;;;3.40;;
7899;SDS011;3995;50.856;4.404;2023-06-10T12:06:37;4.50;;;3.47;;
7899;SDS011;3995;50.856;4.404;2023-06-10T12:09:05;3.60;;;2.50;;
7899;SDS011;3995;50.856;4.404;2023-06-10T12:11:32;5.80;;;3.30;;
7899;SDS011;3995;50.856;4.404;2023-06-10T12:14:01;4.93;;;3.53;;
7899;SDS011;3995;50.856;4.404;2023-06-10T12:16:29;6.10;;;3.60;;
7899;SDS011;3995;50.856;4.404;2023-06-10T12:19:01;23.53;;;3.40;;
7899;SDS011;3995;50.856;4.404;2023-06-10T12:21:28;5.50;;;3.73;;
7899;SDS011;3995;50.856;4.404;2023-06-10T12:24:00;3.70;;;3.20;;
7899;SDS011;3995;50.856;4.404;2023-06-10T12:26:35;4.03;;;3.17;;
7899;SDS011;3995;50.856;4.404;2023-06-10T12:29:14;3.47;;;3.17;;
7899;SDS011;3995;50.856;4.404;2023-06-10T12:31:53;4.50;;;3.40;;
7899;SDS011;3995;50.856;4.404;2023-06-10T12:34:29;14.33;;;4.00;;
7899;SDS011;3995;50.856;4.404;2023-06-10T12:37:00;3.67;;;3.10;;
7899;SDS011;3995;50.856;4.404;2023-06-10T12:39:29;8.30;;;3.47;;
7899;SDS011;3995;50.856;4.404;2023-06-10T12:41:57;8.27;;;4.00;;
7899;SDS011;3995;50.856;4.404;2023-06-10T12:44:33;6.90;;;3.70;;
7899;SDS011;3995;50.856;4.404;2023-06-10T12:47:06;6.90;;;3.63;;
7899;SDS011;3995;50.856;4.404;2023-06-10T12:49:35;4.10;;;3.27;;
7899;SDS011;3995;50.856;4.404;2023-06-10T12:52:03;21.93;;;5.53;;
7899;SDS011;3995;50.856;4.404;2023-06-10T12:54:31;3.90;;;3.50;;
7899;SDS011;3995;50.856;4.404;2023-06-10T12:56:59;4.60;;;3.50;;
7899;SDS011;3995;50.856;4.404;2023-06-10T12:59:27;5.93;;;4.03;;
7899;SDS011;3995;50.856;4.404;2023-06-10T13:01:56;6.60;;;3.40;;
7899;SDS011;3995;50.856;4.404;2023-06-10T13:04:23;4.43;;;3.37;;
7899;SDS011;3995;50.856;4.404;2023-06-10T13:06:50;5.50;;;2.90;;
7899;SDS011;3995;50.856;4.404;2023-06-10T13:09:17;3.60;;;3.30;;
7899;SDS011;3995;50.856;4.404;2023-06-10T13:11:44;9.10;;;4.00;;
7899;SDS011;3995;50.856;4.404;2023-06-10T13:14:11;8.03;;;3.70;;
7899;SDS011;3995;50.856;4.404;2023-06-10T13:16:39;3.43;;;3.13;;
7899;SDS011;3995;50.856;4.404;2023-06-10T13:19:12;4.07;;;3.60;;
7899;SDS011;3995;50.856;4.404;2023-06-10T13:21:39;8.20;;;4.03;;
7899;SDS011;3995;50.856;4.404;2023-06-10T13:24:06;5.53;;;3.13;;
7899;SDS011;3995;50.856;4.404;2023-06-10T13:26:34;4.20;;;3.20;;
7899;SDS011;3995;50.856;4.404;2023-06-10T13:29:01;3.57;;;2.90;;
7899;SDS011;3995;50.856;4.404;2023-06-10T13:31:28;4.63;;;4.03;;
7899;SDS011;3995;50.856;4.404;2023-06-10T13:33:56;8.60;;;3.67;;
7899;SDS011;3995;50.856;4.404;2023-06-10T13:36:25;3.20;;;2.90;;
7899;SDS011;3995;50.856;4.404;2023-06-10T13:38:52;7.83;;;2.67;;
7899;SDS011;3995;50.856;4.404;2023-06-10T13:41:20;9.23;;;3.73;;
7899;SDS011;3995;50.856;4.404;2023-06-10T13:43:48;3.50;;;2.90;;
7899;SDS011;3995;50.856;4.404;2023-06-10T13:46:15;3.40;;;3.10;;
7899;SDS011;3995;50.856;4.404;2023-06-10T13:48:43;4.60;;;3.07;;
7899;SDS011;3995;50.856;4.404;2023-06-10T13:51:10;4.10;;;2.77;;
7899;SDS011;3995;50.856;4.404;2023-06-10T13:53:39;6.27;;;3.57;;
7899;SDS011;3995;50.856;4.404;2023-06-10T13:56:05;4.90;;;3.17;;
7899;SDS011;3995;50.856;4.404;2023-06-10T13:58:33;6.67;;;4.53;;
7899;SDS011;3995;50.856;4.404;2023-06-10T14:01:03;5.30;;;2.90;;
7899;SDS011;3995;50.856;4.404;2023-06-10T14:03:30;4.40;;;2.73;;
7899;SDS011;3995;50.856;4.404;2023-06-10T14:06:01;4.40;;;3.83;;
7899;SDS011;3995;50.856;4.404;2023-06-10T14:08:29;6.77;;;4.07;;
7899;SDS011;3995;50.856;4.404;2023-06-10T14:10:57;5.30;;;3.77;;
7899;SDS011;3995;50.856;4.404;2023-06-10T14:13:24;6.53;;;4.10;;
7899;SDS011;3995;50.856;4.404;2023-06-10T14:15:53;5.30;;;3.20;;
7899;SDS011;3995;50.856;4.404;2023-06-10T14:18:20;5.57;;;3.13;;
7899;SDS011;3995;50.856;4.404;2023-06-10T14:20:47;5.67;;;3.00;;
7899;SDS011;3995;50.856;4.404;2023-06-10T14:23:14;3.73;;;3.17;;
7899;SDS011;3995;50.856;4.404;2023-06-10T14:25:42;3.53;;;3.23;;
7899;SDS011;3995;50.856;4.404;2023-06-10T14:28:10;13.03;;;3.70;;
7899;SDS011;3995;50.856;4.404;2023-06-10T14:30:38;7.47;;;4.20;;
7899;SDS011;3995;50.856;4.404;2023-06-10T14:33:05;6.40;;;3.20;;
7899;SDS011;3995;50.856;4.404;2023-06-10T14:35:33;4.40;;;4.00;;
7899;SDS011;3995;50.856;4.404;2023-06-10T14:38:00;6.93;;;3.33;;
7899;SDS011;3995;50.856;4.404;2023-06-10T14:40:27;7.23;;;3.73;;
7899;SDS011;3995;50.856;4.404;2023-06-10T14:42:54;8.73;;;3.03;;
7899;SDS011;3995;50.856;4.404;2023-06-10T14:45:23;6.70;;;3.50;;
7899;SDS011;3995;50.856;4.404;2023-06-10T14:47:50;6.97;;;3.57;;
7899;SDS011;3995;50.856;4.404;2023-06-10T14:50:18;4.10;;;3.37;;
7899;SDS011;3995;50.856;4.404;2023-06-10T14:52:45;6.37;;;2.83;;
7899;SDS011;3995;50.856;4.404;2023-06-10T14:55:12;4.97;;;2.80;;
7899;SDS011;3995;50.856;4.404;2023-06-10T14:57:41;7.87;;;3.20;;
7899;SDS011;3995;50.856;4.404;2023-06-10T15:00:08;5.50;;;2.97;;
7899;SDS011;3995;50.856;4.404;2023-06-10T15:02:38;11.40;;;3.70;;
7899;SDS011;3995;50.856;4.404;2023-06-10T15:05:05;3.17;;;2.87;;
7899;SDS011;3995;50.856;4.404;2023-06-10T15:07:33;4.30;;;3.17;;
7899;SDS011;3995;50.856;4.404;2023-06-10T15:10:00;5.17;;;3.20;;
7899;SDS011;3995;50.856;4.404;2023-06-10T15:12:27;4.10;;;3.27;;
7899;SDS011;3995;50.856;4.404;2023-06-10T15:14:54;5.50;;;3.27;;
7899;SDS011;3995;50.856;4.404;2023-06-10T15:17:21;7.20;;;3.63;;
7899;SDS011;3995;50.856;4.404;2023-06-10T15:19:50;6.73;;;3.10;;
7899;SDS011;3995;50.856;4.404;2023-06-10T15:22:21;11.03;;;4.33;;